createdAt,value
2018-11-03T00:02:57.059Z,5.00
2018-11-03T00:06:04.294Z,4.98
2018-11-03T00:09:11.433Z,4.95
2018-11-03T00:12:18.277Z,4.90
2018-11-03T00:15:30.349Z,4.85
2018-11-03T00:18:35.560Z,4.79
2018-11-03T00:21:40.619Z,4.71
2018-11-03T00:24:45.630Z,4.65
2018-11-03T00:27:52.853Z,4.58
2018-11-03T00:31:19.707Z,4.55
2018-11-03T00:34:26.383Z,4.46
2018-11-03T00:37:31.730Z,4.45
2018-11-03T00:40:46.345Z,4.48
2018-11-03T00:43:51.429Z,4.48
2018-11-03T00:46:56.518Z,4.43
2018-11-03T00:50:03.351Z,4.35
2018-11-03T00:53:09.966Z,4.43
2018-11-03T00:56:16.618Z,4.52
2018-11-03T00:59:21.674Z,4.60
2018-11-03T01:02:28.405Z,4.65
2018-11-03T01:05:35.051Z,4.68
2018-11-03T01:08:40.083Z,4.66
2018-11-03T01:11:45.341Z,4.66
2018-11-03T01:14:52.273Z,4.60
2018-11-03T01:17:57.279Z,4.56
2018-11-03T01:21:02.690Z,4.52
2018-11-03T01:24:07.761Z,4.48
2018-11-03T01:27:12.787Z,4.46
2018-11-03T01:30:17.809Z,4.42
2018-11-03T01:33:22.822Z,4.43
2018-11-03T01:36:27.858Z,4.46
2018-11-03T01:39:34.414Z,4.45
2018-11-03T01:42:39.458Z,4.46
2018-11-03T01:45:46.527Z,4.41
2018-11-03T01:48:51.597Z,4.34
2018-11-03T01:51:56.621Z,4.32
2018-11-03T01:55:05.889Z,4.30
2018-11-03T01:58:12.515Z,4.23
2018-11-03T02:01:19.617Z,4.18
2018-11-03T02:04:24.629Z,4.10
2018-11-03T02:07:31.716Z,4.06
2018-11-03T02:10:38.494Z,4.00
2018-11-03T02:13:43.502Z,3.92
2018-11-03T02:16:48.541Z,3.85
2018-11-03T02:19:55.691Z,3.82
2018-11-03T02:23:00.710Z,3.76
2018-11-03T02:26:07.491Z,3.71
2018-11-03T02:29:12.478Z,3.65
2018-11-03T02:32:17.498Z,3.59
2018-11-03T02:35:22.538Z,3.54
2018-11-03T02:38:27.540Z,3.49
2018-11-03T02:41:32.550Z,3.43
2018-11-03T02:44:37.555Z,3.43
2018-11-03T02:47:42.652Z,3.38
2018-11-03T02:50:47.651Z,3.30
2018-11-03T02:53:52.645Z,3.17
2018-11-03T02:56:57.682Z,3.20
2018-11-03T03:00:02.810Z,3.20
2018-11-03T03:03:07.888Z,3.16
2018-11-03T03:06:12.941Z,3.13
2018-11-03T03:09:17.980Z,3.10
2018-11-03T03:12:22.998Z,3.08
2018-11-03T03:15:28.001Z,3.03
2018-11-03T03:18:32.990Z,3.02
2018-11-03T03:21:39.767Z,3.02
2018-11-03T03:24:46.353Z,2.96
2018-11-03T03:27:51.446Z,2.93
2018-11-03T03:30:58.569Z,2.93
2018-11-03T03:34:05.690Z,2.91
2018-11-03T03:37:10.693Z,2.94
2018-11-03T03:40:15.704Z,2.93
2018-11-03T03:43:20.717Z,2.90
2018-11-03T03:46:25.710Z,2.93
2018-11-03T03:49:30.718Z,2.93
2018-11-03T03:52:35.782Z,2.93
2018-11-03T03:55:40.843Z,2.91
2018-11-03T03:58:45.869Z,2.97
2018-11-03T04:01:52.751Z,2.98
2018-11-03T04:04:57.744Z,2.94
2018-11-03T04:08:04.495Z,2.95
2018-11-03T04:11:09.526Z,2.97
2018-11-03T04:14:14.535Z,2.97
2018-11-03T04:17:19.586Z,2.98
2018-11-03T04:20:24.605Z,2.93
2018-11-03T04:23:31.294Z,2.92
2018-11-03T04:26:36.297Z,2.90
2018-11-03T04:29:41.311Z,2.84
2018-11-03T04:32:47.899Z,2.86
2018-11-03T04:35:54.778Z,2.86
2018-11-03T04:38:59.794Z,2.83
2018-11-03T04:42:04.838Z,2.80
2018-11-03T04:45:10.664Z,2.83
2018-11-03T04:48:15.665Z,2.84
2018-11-03T04:51:20.697Z,2.79
2018-11-03T04:54:25.857Z,2.72
2018-11-03T04:57:30.893Z,2.71
2018-11-03T05:00:37.614Z,2.71
2018-11-03T05:03:44.353Z,2.73
2018-11-03T05:06:49.399Z,2.77
2018-11-03T05:09:54.500Z,2.78
2018-11-03T05:15:13.143Z,2.59
2018-11-03T05:18:18.150Z,2.61
2018-11-03T05:21:23.569Z,2.67
2018-11-03T05:24:28.443Z,2.69
2018-11-03T05:27:33.449Z,2.73
2018-11-03T05:30:38.447Z,2.77
2018-11-03T05:33:43.456Z,2.79
2018-11-03T05:36:48.470Z,2.72
2018-11-03T05:39:53.491Z,2.72
2018-11-03T05:42:58.485Z,2.73
2018-11-03T05:46:03.581Z,2.74
2018-11-03T05:49:08.915Z,2.74
2018-11-03T05:52:13.928Z,2.72
2018-11-03T05:55:19.023Z,2.71
2018-11-03T05:58:24.054Z,2.70
2018-11-03T06:01:29.073Z,2.72
2018-11-03T06:04:34.080Z,2.72
2018-11-03T06:07:39.095Z,2.70
2018-11-03T06:10:44.131Z,2.64
2018-11-03T06:13:49.143Z,2.61
2018-11-03T06:16:54.189Z,2.64
2018-11-03T06:19:59.181Z,2.64
2018-11-03T06:23:04.451Z,2.66
2018-11-03T06:26:09.340Z,2.65
2018-11-03T06:29:14.437Z,2.68
2018-11-03T06:32:19.475Z,2.66
2018-11-03T06:35:24.553Z,2.71
2018-11-03T06:38:29.530Z,2.76
2018-11-03T06:41:34.609Z,2.79
2018-11-03T06:44:39.613Z,2.84
2018-11-03T06:47:51.474Z,2.83
2018-11-03T06:50:58.713Z,2.86
2018-11-03T06:54:04.194Z,2.87
2018-11-03T06:57:09.242Z,2.89
2018-11-03T07:00:14.271Z,2.90
2018-11-03T07:03:19.274Z,2.92
2018-11-03T07:06:24.449Z,2.93
2018-11-03T07:09:29.470Z,2.91
2018-11-03T07:12:34.669Z,2.90
2018-11-03T07:15:39.593Z,2.89
2018-11-03T07:18:44.589Z,2.88
2018-11-03T07:21:49.703Z,2.85
2018-11-03T07:24:54.644Z,2.86
2018-11-03T07:27:59.683Z,2.88
2018-11-03T07:31:05.261Z,2.90
2018-11-03T07:34:10.262Z,2.92
2018-11-03T07:37:15.268Z,3.00
2018-11-03T07:40:20.300Z,3.09
2018-11-03T07:43:26.467Z,3.18
2018-11-03T07:46:36.297Z,3.28
2018-11-03T07:49:41.441Z,3.42
2018-11-03T07:52:46.451Z,3.65
2018-11-03T07:55:51.555Z,3.86
2018-11-03T07:58:56.614Z,4.01
2018-11-03T08:02:04.254Z,4.18
2018-11-03T08:05:10.685Z,4.36
2018-11-03T08:08:19.169Z,4.55
2018-11-03T08:11:26.346Z,4.78
2018-11-03T08:14:31.582Z,4.93
2018-11-03T08:17:37.330Z,5.05
2018-11-03T08:20:44.465Z,5.74
2018-11-03T08:23:51.552Z,7.57
2018-11-03T08:26:58.630Z,8.45
2018-11-03T08:30:07.431Z,8.66
2018-11-03T08:33:21.198Z,9.12
2018-11-03T08:36:30.299Z,9.42
2018-11-03T08:39:37.623Z,9.41
2018-11-03T08:42:50.828Z,9.14
2018-11-03T08:45:56.003Z,8.98
2018-11-03T08:49:01.252Z,9.34
2018-11-03T08:52:07.498Z,9.81
2018-11-03T08:55:14.590Z,10.10
2018-11-03T08:58:19.636Z,9.89
2018-11-03T09:01:24.776Z,9.90
2018-11-03T09:04:29.790Z,10.36
2018-11-03T09:07:35.288Z,10.90
2018-11-03T09:10:40.322Z,11.30
2018-11-03T09:13:45.396Z,11.32
2018-11-03T09:16:50.713Z,11.53
2018-11-03T09:19:55.786Z,11.61
2018-11-03T09:23:00.843Z,11.39
2018-11-03T09:26:05.967Z,11.29
2018-11-03T09:29:11.010Z,11.09
2018-11-03T09:32:20.331Z,11.23
2018-11-03T09:35:25.372Z,10.94
2018-11-03T09:38:30.526Z,11.26
2018-11-03T09:41:35.896Z,11.47
2018-11-03T09:44:40.966Z,11.46
2018-11-03T09:47:46.012Z,11.36
2018-11-03T09:50:52.841Z,11.33
2018-11-03T09:53:59.557Z,11.04
2018-11-03T09:57:05.305Z,10.98
2018-11-03T10:00:13.216Z,11.09
2018-11-03T10:03:23.138Z,11.58
2018-11-03T10:06:29.941Z,11.61
2018-11-03T10:09:38.663Z,11.26
2018-11-03T10:12:46.832Z,11.45
2018-11-03T10:15:51.847Z,11.32
2018-11-03T10:18:56.875Z,11.03
2018-11-03T10:22:03.856Z,10.96
2018-11-03T10:25:13.109Z,10.99
2018-11-03T10:28:18.156Z,11.10
2018-11-03T10:31:23.199Z,11.27
2018-11-03T10:34:30.034Z,11.24
2018-11-03T10:41:06.365Z,11.90
2018-11-03T10:47:42.383Z,11.95
2018-11-03T10:50:49.422Z,12.10
2018-11-03T10:53:55.324Z,12.09
2018-11-03T10:57:00.606Z,12.10
2018-11-03T11:00:17.643Z,12.32
2018-11-03T11:03:34.325Z,12.64
2018-11-03T11:07:00.630Z,12.34
2018-11-03T11:10:17.181Z,12.33
2018-11-03T11:13:26.662Z,12.40
2018-11-03T11:16:33.880Z,12.30
2018-11-03T11:19:38.864Z,12.39
2018-11-03T11:22:47.557Z,12.54
2018-11-03T11:26:05.451Z,12.37
2018-11-03T11:29:10.793Z,12.74
2018-11-03T11:32:17.874Z,13.09
2018-11-03T11:35:24.743Z,13.25
2018-11-03T11:38:41.382Z,13.41
2018-11-03T11:41:48.014Z,13.46
2018-11-03T11:44:56.138Z,13.51
2018-11-03T11:48:03.175Z,13.48
2018-11-03T11:51:08.310Z,13.63
2018-11-03T11:54:17.605Z,13.83
2018-11-03T11:57:24.784Z,13.82
2018-11-03T12:00:29.837Z,13.92
2018-11-03T12:03:34.994Z,13.61
2018-11-03T12:06:44.065Z,13.65
2018-11-03T12:09:49.438Z,13.88
2018-11-03T12:15:01.171Z,13.95
2018-11-03T12:18:06.520Z,14.25
2018-11-03T12:28:12.341Z,14.33
2018-11-03T12:31:17.382Z,14.49
2018-11-03T12:34:22.418Z,14.50
2018-11-03T12:37:29.854Z,14.66
2018-11-03T12:40:35.109Z,14.63
2018-11-03T12:43:41.890Z,14.70
2018-11-03T12:46:47.060Z,14.79
2018-11-03T12:49:58.111Z,14.94
2018-11-03T12:53:03.286Z,15.04
2018-11-03T12:56:08.340Z,14.96
2018-11-03T12:59:13.437Z,14.68
2018-11-03T13:02:18.607Z,14.59
2018-11-03T13:05:23.697Z,14.35
2018-11-03T13:08:29.610Z,14.51
2018-11-03T13:11:34.710Z,14.69
2018-11-03T13:14:39.690Z,14.77
2018-11-03T13:17:44.781Z,14.73
2018-11-03T13:20:49.953Z,14.81
2018-11-03T13:23:55.152Z,14.71
2018-11-03T13:27:00.154Z,14.82
2018-11-03T13:30:06.676Z,14.80
2018-11-03T13:33:11.649Z,14.75
2018-11-03T13:36:17.049Z,14.65
2018-11-03T13:39:22.083Z,14.61
2018-11-03T13:42:27.099Z,14.66
2018-11-03T13:45:32.183Z,14.55
2018-11-03T13:48:37.231Z,14.37
2018-11-03T13:51:42.281Z,14.31
2018-11-03T13:54:47.309Z,14.03
2018-11-03T13:57:52.502Z,14.01
2018-11-03T14:00:57.554Z,14.16
2018-11-03T14:04:02.722Z,14.27
2018-11-03T14:07:07.886Z,14.22
2018-11-03T14:10:14.110Z,14.30
2018-11-03T14:13:19.408Z,14.00
2018-11-03T14:16:24.470Z,13.83
2018-11-03T14:19:29.833Z,13.80
2018-11-03T14:22:35.613Z,13.77
2018-11-03T14:25:40.739Z,13.76
2018-11-03T14:28:45.825Z,13.77
2018-11-03T14:31:50.896Z,13.74
2018-11-03T14:34:57.103Z,13.75
2018-11-03T14:38:02.207Z,13.42
2018-11-03T14:41:07.234Z,13.32
2018-11-03T14:44:12.656Z,13.19
2018-11-03T14:47:17.689Z,13.02
2018-11-03T14:50:27.305Z,12.96
2018-11-03T14:53:33.479Z,12.77
2018-11-03T14:56:38.588Z,12.76
2018-11-03T14:59:43.649Z,12.67
2018-11-03T15:02:48.691Z,12.52
2018-11-03T15:05:53.707Z,12.45
2018-11-03T15:08:58.842Z,12.44
2018-11-03T15:12:04.100Z,12.30
2018-11-03T15:15:13.109Z,12.21
2018-11-03T15:25:19.693Z,11.69
2018-11-03T15:28:24.721Z,11.58
2018-11-03T15:31:30.009Z,11.44
2018-11-03T15:34:35.101Z,11.28
2018-11-03T15:37:40.388Z,11.10
2018-11-03T15:40:45.446Z,10.90
2018-11-03T15:43:51.623Z,10.71
2018-11-03T15:46:56.781Z,10.56
2018-11-03T15:50:01.913Z,10.38
2018-11-03T15:53:06.981Z,10.21
2018-11-03T15:56:12.524Z,10.02
2018-11-03T15:59:17.579Z,9.86
2018-11-03T16:02:22.632Z,9.70
2018-11-03T16:05:27.686Z,9.52
2018-11-03T16:08:32.713Z,9.36
2018-11-03T16:11:37.745Z,9.20
2018-11-03T16:14:42.783Z,9.08
2018-11-03T16:17:47.764Z,8.95
2018-11-03T16:20:52.825Z,8.79
2018-11-03T16:23:57.836Z,8.66
2018-11-03T16:27:02.883Z,8.52
2018-11-03T16:30:10.925Z,8.32
2018-11-03T16:33:15.960Z,8.18
2018-11-03T16:36:20.971Z,8.05
2018-11-03T16:39:26.014Z,7.94
2018-11-03T16:42:31.070Z,7.82
2018-11-03T16:45:36.287Z,7.73
2018-11-03T16:48:41.755Z,7.62
2018-11-03T16:51:46.776Z,7.49
2018-11-03T16:54:51.769Z,7.41
2018-11-03T17:01:27.137Z,7.20
2018-11-03T17:04:32.207Z,7.11
2018-11-03T17:11:07.714Z,6.87
2018-11-03T17:14:12.726Z,6.80
2018-11-03T17:17:17.742Z,6.74
2018-11-03T17:20:23.857Z,6.66
2018-11-03T17:23:28.920Z,6.57
2018-11-03T17:26:33.989Z,6.49
2018-11-03T17:29:38.985Z,6.43
2018-11-03T17:32:44.521Z,6.36
2018-11-03T17:35:49.513Z,6.31
2018-11-03T17:38:54.495Z,6.24
2018-11-03T17:41:59.532Z,6.17
2018-11-03T17:45:05.564Z,6.13
2018-11-03T17:48:10.749Z,6.06
2018-11-03T17:51:15.940Z,5.99
2018-11-03T17:54:20.976Z,5.93
2018-11-03T17:57:25.986Z,5.87
2018-11-03T18:00:31.281Z,5.79
2018-11-03T18:03:36.045Z,5.73
2018-11-03T18:06:41.050Z,5.67
2018-11-03T18:09:46.037Z,5.60
2018-11-03T18:12:51.017Z,5.52
2018-11-03T18:15:56.053Z,5.46
2018-11-03T18:19:01.542Z,5.43
2018-11-03T18:22:06.642Z,5.42
2018-11-03T18:25:11.650Z,5.36
2018-11-03T18:28:16.641Z,5.31
2018-11-03T18:31:21.629Z,5.24
2018-11-03T18:34:26.642Z,5.20
2018-11-03T18:37:31.654Z,5.15
2018-11-03T18:40:36.692Z,5.05
2018-11-03T18:43:41.733Z,5.02
2018-11-03T18:46:46.856Z,5.03
2018-11-03T18:49:51.807Z,5.07
2018-11-03T18:52:56.904Z,5.10
2018-11-03T18:56:02.026Z,5.12
2018-11-03T18:59:07.256Z,5.15
2018-11-03T19:02:12.303Z,5.20
2018-11-03T19:05:19.411Z,5.25
2018-11-03T19:08:24.557Z,5.32
2018-11-03T19:11:29.690Z,5.32
2018-11-03T19:14:35.187Z,5.33
2018-11-03T19:17:40.601Z,5.35
2018-11-03T19:20:45.601Z,5.42
2018-11-03T19:23:50.965Z,5.46
2018-11-03T19:26:55.844Z,5.52
2018-11-03T19:30:11.727Z,5.59
2018-11-03T19:33:16.681Z,5.63
2018-11-03T19:36:21.715Z,5.67
2018-11-03T19:39:26.725Z,5.72
2018-11-03T19:42:31.798Z,5.78
2018-11-03T19:45:36.790Z,5.84
2018-11-03T19:48:41.922Z,5.89
2018-11-03T19:51:47.007Z,5.95
2018-11-03T19:54:51.943Z,5.97
2018-11-03T19:57:56.989Z,5.99
2018-11-03T20:01:02.107Z,6.04
2018-11-03T20:04:07.129Z,6.10
2018-11-03T20:07:12.132Z,6.16
2018-11-03T20:10:17.137Z,6.22
2018-11-03T20:13:22.141Z,6.27
2018-11-03T20:16:27.163Z,6.34
2018-11-03T20:19:32.154Z,6.38
2018-11-03T20:22:37.187Z,6.41
2018-11-03T20:25:42.160Z,6.41
2018-11-03T20:28:47.211Z,6.45
2018-11-03T20:31:52.566Z,6.48
2018-11-03T20:34:57.493Z,6.53
2018-11-03T20:38:02.486Z,6.58
2018-11-03T20:41:07.495Z,6.60
2018-11-03T20:44:12.480Z,6.66
2018-11-03T20:47:19.189Z,6.71
2018-11-03T20:50:24.181Z,6.77
2018-11-03T20:53:29.211Z,6.81
2018-11-03T20:56:34.259Z,6.84
2018-11-03T20:59:39.250Z,6.87
2018-11-03T21:02:45.007Z,6.90
2018-11-03T21:05:50.064Z,6.95
2018-11-03T21:08:55.198Z,6.99
2018-11-03T21:15:01.145Z,6.93
2018-11-03T21:18:06.317Z,6.98
2018-11-03T21:21:11.546Z,7.01
2018-11-03T21:24:16.670Z,7.02
2018-11-03T21:27:21.600Z,7.06
2018-11-03T21:30:39.512Z,7.11
2018-11-03T21:33:44.517Z,7.12
2018-11-03T21:36:49.613Z,7.17
2018-11-03T21:39:54.616Z,7.23
2018-11-03T21:43:00.042Z,7.28
2018-11-03T21:46:06.075Z,7.31
2018-11-03T21:49:11.141Z,7.33
2018-11-03T21:52:16.171Z,7.38
2018-11-03T21:55:21.234Z,7.42
2018-11-03T21:58:26.254Z,7.40
2018-11-03T22:01:31.282Z,7.37
2018-11-03T22:04:36.376Z,7.40
2018-11-03T22:07:42.328Z,7.44
2018-11-03T22:10:47.538Z,7.46
2018-11-03T22:13:52.535Z,7.49
2018-11-03T22:16:57.526Z,7.50
2018-11-03T22:20:02.582Z,7.56
2018-11-03T22:23:07.569Z,7.58
2018-11-03T22:26:12.878Z,7.60
2018-11-03T22:29:17.869Z,7.63
2018-11-03T22:32:22.878Z,7.64
2018-11-03T22:35:27.872Z,7.67
2018-11-03T22:38:32.885Z,7.68
2018-11-03T22:41:38.462Z,7.70
2018-11-03T22:44:43.459Z,7.72
2018-11-03T22:47:48.500Z,7.75
2018-11-03T22:50:53.525Z,7.76
2018-11-03T22:53:58.655Z,7.77
2018-11-03T22:57:03.713Z,7.80
2018-11-03T23:03:12.124Z,7.86
2018-11-03T23:06:19.279Z,7.85
2018-11-03T23:09:31.152Z,7.85
2018-11-03T23:12:36.255Z,7.85
2018-11-03T23:15:41.349Z,7.87
2018-11-03T23:18:50.067Z,7.89
2018-11-03T23:21:55.131Z,7.91
2018-11-03T23:25:02.163Z,7.90
2018-11-03T23:28:07.302Z,7.92
2018-11-03T23:31:12.272Z,7.93
2018-11-03T23:34:17.291Z,7.94
2018-11-03T23:37:22.418Z,7.94
2018-11-03T23:40:29.364Z,7.95
2018-11-03T23:43:38.619Z,7.98
2018-11-03T23:46:45.562Z,8.00
2018-11-03T23:49:50.573Z,8.01
2018-11-03T23:52:57.216Z,8.04
2018-11-03T23:56:04.554Z,8.04
2018-11-03T23:59:11.706Z,8.02
